Olympic Star — WDF3678 — position and weather

sailwx.info

Track history (hours):
 
Tides and Currents Weather Stations Pressure Air Temp Water Temp Dewpoint Dewpoint Depression Visibility Wind Speed Wind Dir Waves Ship Positions

Olympic Star

Owner: Waterways Holdings, Seattle, WA. More information available from US FCC via Universal Licensing System and Coast Guard Vessel Documentation Center.

Last reported at 2017-Oct-09 02:48 UTC. Time now 2017-Oct-20 16:18 UTC.
Position N 47°39' W 122°20'.
Warning: this ship's position is 11 days out of date.

Length 26 m; draft 1.5 m.

Type: Passenger vessel. MMSI: 367442780.

Date/timePositionNaut miles runAvg speedWind from/ knotsBaromVisibWave heightAir tempDewpointWater temp
2017-Oct-09 02:48N 47°39' W 122°20'0 0.0
2017-Oct-09 02:30N 47°39' W 122°20'0 0.3
2017-Oct-09 02:00N 47°39' W 122°20'0 0.9
2017-Oct-09 01:30N 47°39' W 122°20'3 5.4
2017-Oct-09 01:00N 47°39' W 122°16'0 0.7
2017-Oct-09 00:22N 47°39' W 122°17'2 5.8
2017-Oct-09 00:00N 47°39' W 122°20'0 0.0
2017-Oct-08 23:30N 47°39' W 122°20'0 0.0
2017-Oct-08 23:00N 47°39' W 122°20'0 0.0
2017-Oct-08 22:30N 47°39' W 122°20'0 0.0
2017-Oct-08 22:00N 47°39' W 122°20'0 0.0
2017-Oct-07 06:42N 47°39' W 122°20'0 0.0
2017-Oct-07 06:30N 47°39' W 122°20'1 2.4
2017-Oct-07 06:00N 47°39' W 122°18'1 1.5
2017-Oct-07 05:26N 47°39' W 122°19'2 3.6
2017-Oct-07 05:00N 47°39' W 122°21'0 0.8
2017-Oct-07 04:31N 47°39' W 122°22'2 3.5
2017-Oct-07 04:00N 47°38' W 122°20'1 1.9
2017-Oct-07 03:30N 47°39' W 122°20'0 0.0
2017-Oct-07 03:00N 47°39' W 122°20'0 0.0
2017-Oct-07 02:30N 47°39' W 122°20'0 0.1
2017-Oct-07 02:00N 47°39' W 122°20'  
2017-Oct-03 05:05N 47°39' W 122°20'0 0.0
2017-Oct-03 05:00N 47°39' W 122°20'0 0.0
2017-Oct-03 04:30N 47°39' W 122°20'1 2.3
2017-Oct-03 04:00N 47°38' W 122°20'2 2.9
2017-Oct-03 03:11N 47°39' W 122°17'1 5.3
2017-Oct-03 02:56N 47°38' W 122°16'2 5.0
2017-Oct-03 02:30N 47°36' W 122°13'3 5.2
2017-Oct-03 02:00N 47°38' W 122°16'3 5.4
2017-Oct-03 01:30N 47°39' W 122°20'0 0.0
2017-Oct-03 01:00N 47°39' W 122°20'0 0.0
2017-Oct-03 00:30N 47°39' W 122°20'0 0.0
2017-Oct-03 00:00N 47°39' W 122°20'0 0.0
2017-Oct-02 23:30N 47°39' W 122°20'0 0.0
2017-Oct-02 04:41N 47°39' W 122°20'0 0.0
2017-Oct-02 04:30N 47°39' W 122°20'0 0.0
2017-Oct-02 04:00N 47°39' W 122°20'1 1.5
2017-Oct-02 03:30N 47°38' W 122°20'1 1.1
2017-Oct-02 03:00N 47°39' W 122°21'2 3.6
2017-Oct-02 02:29N 47°39' W 122°18'2 4.5
2017-Oct-02 02:00N 47°37' W 122°16'2 2.8
2017-Oct-02 01:16N 47°37' W 122°13'2 3.3
2017-Oct-02 00:46N 47°38' W 122°15'1 4.8
2017-Oct-02 00:30N 47°39' W 122°16'2 4.8
2017-Oct-02 00:00N 47°39' W 122°20'0 0.0
2017-Oct-01 23:30N 47°39' W 122°20'0 0.0
2017-Oct-01 23:00N 47°39' W 122°20'0 0.0
2017-Oct-01 22:30N 47°39' W 122°20'0 0.0
2017-Oct-01 22:00N 47°39' W 122°20'0 0.0
2017-Oct-01 21:30N 47°39' W 122°20'0 0.0
2017-Oct-01 08:48N 47°39' W 122°20'0 0.0
2017-Oct-01 08:30N 47°39' W 122°20'0 0.0
2017-Oct-01 08:00N 47°39' W 122°20'0 0.0
2017-Oct-01 07:30N 47°39' W 122°20'0 0.0
2017-Oct-01 07:00N 47°39' W 122°20'1 1.4
2017-Oct-01 06:30N 47°39' W 122°19'0 0.6
2017-Oct-01 06:00N 47°39' W 122°18'1 2.9
2017-Oct-01 05:30N 47°38' W 122°20'0 0.6
2017-Oct-01 05:00N 47°39' W 122°20'2 4.6
2017-Oct-01 04:30N 47°39' W 122°17'2 3.9
2017-Oct-01 03:57N 47°40' W 122°14'1 1.8
2017-Oct-01 03:30N 47°40' W 122°14'3 5.5
2017-Oct-01 03:00N 47°37' W 122°15'  
Track history (hours):
 
Tides and Currents Weather Stations Pressure Air Temp Water Temp Dewpoint Dewpoint Depression Visibility Wind Speed Wind Dir Waves Ship Positions

Olympic Star

Owner: Waterways Holdings, Seattle, WA. More information available from US FCC via Universal Licensing System and Coast Guard Vessel Documentation Center.

Last reported at 2017-Oct-09 02:48 UTC. Time now 2017-Oct-20 16:18 UTC.
Position N 47°39' W 122°20'.
Warning: this ship's position is 11 days out of date.

Length 26 m; draft 1.5 m.

Type: Passenger vessel. MMSI: 367442780.

Date/timePositionNaut miles runAvg speedWind from/ knotsBaromVisibWave heightAir tempDewpointWater temp
2017-Oct-09 02:48N 47°39' W 122°20'0 0.0
2017-Oct-09 02:30N 47°39' W 122°20'0 0.3
2017-Oct-09 02:00N 47°39' W 122°20'0 0.9
2017-Oct-09 01:30N 47°39' W 122°20'3 5.4
2017-Oct-09 01:00N 47°39' W 122°16'0 0.7
2017-Oct-09 00:22N 47°39' W 122°17'2 5.8
2017-Oct-09 00:00N 47°39' W 122°20'0 0.0
2017-Oct-08 23:30N 47°39' W 122°20'0 0.0
2017-Oct-08 23:00N 47°39' W 122°20'0 0.0
2017-Oct-08 22:30N 47°39' W 122°20'0 0.0
2017-Oct-08 22:00N 47°39' W 122°20'0 0.0
2017-Oct-07 06:42N 47°39' W 122°20'0 0.0
2017-Oct-07 06:30N 47°39' W 122°20'1 2.4
2017-Oct-07 06:00N 47°39' W 122°18'1 1.5
2017-Oct-07 05:26N 47°39' W 122°19'2 3.6
2017-Oct-07 05:00N 47°39' W 122°21'0 0.8
2017-Oct-07 04:31N 47°39' W 122°22'2 3.5
2017-Oct-07 04:00N 47°38' W 122°20'1 1.9
2017-Oct-07 03:30N 47°39' W 122°20'0 0.0
2017-Oct-07 03:00N 47°39' W 122°20'0 0.0
2017-Oct-07 02:30N 47°39' W 122°20'0 0.1
2017-Oct-07 02:00N 47°39' W 122°20'  
2017-Oct-03 05:05N 47°39' W 122°20'0 0.0
2017-Oct-03 05:00N 47°39' W 122°20'0 0.0
2017-Oct-03 04:30N 47°39' W 122°20'1 2.3
2017-Oct-03 04:00N 47°38' W 122°20'2 2.9
2017-Oct-03 03:11N 47°39' W 122°17'1 5.3
2017-Oct-03 02:56N 47°38' W 122°16'2 5.0
2017-Oct-03 02:30N 47°36' W 122°13'3 5.2
2017-Oct-03 02:00N 47°38' W 122°16'3 5.4
2017-Oct-03 01:30N 47°39' W 122°20'0 0.0
2017-Oct-03 01:00N 47°39' W 122°20'0 0.0
2017-Oct-03 00:30N 47°39' W 122°20'0 0.0
2017-Oct-03 00:00N 47°39' W 122°20'0 0.0
2017-Oct-02 23:30N 47°39' W 122°20'0 0.0
2017-Oct-02 04:41N 47°39' W 122°20'0 0.0
2017-Oct-02 04:30N 47°39' W 122°20'0 0.0
2017-Oct-02 04:00N 47°39' W 122°20'1 1.5
2017-Oct-02 03:30N 47°38' W 122°20'1 1.1
2017-Oct-02 03:00N 47°39' W 122°21'2 3.6
2017-Oct-02 02:29N 47°39' W 122°18'2 4.5
2017-Oct-02 02:00N 47°37' W 122°16'2 2.8
2017-Oct-02 01:16N 47°37' W 122°13'2 3.3
2017-Oct-02 00:46N 47°38' W 122°15'1 4.8
2017-Oct-02 00:30N 47°39' W 122°16'2 4.8
2017-Oct-02 00:00N 47°39' W 122°20'0 0.0
2017-Oct-01 23:30N 47°39' W 122°20'0 0.0
2017-Oct-01 23:00N 47°39' W 122°20'0 0.0
2017-Oct-01 22:30N 47°39' W 122°20'0 0.0
2017-Oct-01 22:00N 47°39' W 122°20'0 0.0
2017-Oct-01 21:30N 47°39' W 122°20'0 0.0
2017-Oct-01 08:48N 47°39' W 122°20'0 0.0
2017-Oct-01 08:30N 47°39' W 122°20'0 0.0
2017-Oct-01 08:00N 47°39' W 122°20'0 0.0
2017-Oct-01 07:30N 47°39' W 122°20'0 0.0
2017-Oct-01 07:00N 47°39' W 122°20'1 1.4
2017-Oct-01 06:30N 47°39' W 122°19'0 0.6
2017-Oct-01 06:00N 47°39' W 122°18'1 2.9
2017-Oct-01 05:30N 47°38' W 122°20'0 0.6
2017-Oct-01 05:00N 47°39' W 122°20'2 4.6
2017-Oct-01 04:30N 47°39' W 122°17'2 3.9
2017-Oct-01 03:57N 47°40' W 122°14'1 1.8
2017-Oct-01 03:30N 47°40' W 122°14'3 5.5
2017-Oct-01 03:00N 47°37' W 122°15'  

Dump ship's entire track history